createdAt,value
2022-12-12T00:01:43.757Z,88.62
2022-12-12T00:04:12.280Z,88.56
2022-12-12T00:06:41.038Z,88.89
2022-12-12T00:09:09.095Z,89.03
2022-12-12T00:11:37.455Z,89.37
2022-12-12T00:14:05.753Z,89.52
2022-12-12T00:16:34.010Z,89.40
2022-12-12T00:19:02.239Z,89.47
2022-12-12T00:21:31.099Z,89.42
2022-12-12T00:23:59.214Z,89.40
2022-12-12T00:26:30.608Z,89.35
2022-12-12T00:28:59.921Z,89.31
2022-12-12T00:31:28.539Z,89.16
2022-12-12T00:33:57.276Z,89.09
2022-12-12T00:36:28.749Z,89.11
2022-12-12T00:38:58.362Z,89.12
2022-12-12T00:41:26.721Z,89.08
2022-12-12T00:43:54.917Z,89.12
2022-12-12T00:46:25.515Z,89.03
2022-12-12T00:48:56.029Z,89.19
2022-12-12T00:51:26.552Z,89.35
2022-12-12T00:53:58.251Z,89.30
2022-12-12T00:56:29.079Z,89.38
2022-12-12T00:58:57.357Z,89.44
2022-12-12T01:01:28.042Z,89.53
2022-12-12T01:03:57.343Z,89.43
2022-12-12T01:06:26.191Z,89.30
2022-12-12T01:08:54.691Z,89.16
2022-12-12T01:11:24.120Z,89.09
2022-12-12T01:13:54.651Z,89.07
2022-12-12T01:16:24.598Z,88.97
2022-12-12T01:18:53.323Z,88.82
2022-12-12T01:21:21.866Z,88.73
2022-12-12T01:23:51.821Z,88.63
2022-12-12T01:26:23.376Z,88.52
2022-12-12T01:28:53.027Z,88.36
2022-12-12T01:31:21.825Z,88.35
2022-12-12T01:33:50.885Z,88.28
2022-12-12T01:36:23.444Z,87.93
2022-12-12T01:38:53.631Z,88.01
2022-12-12T01:41:22.002Z,87.98
2022-12-12T01:43:50.256Z,87.92
2022-12-12T01:46:45.195Z,87.69
2022-12-12T01:49:25.216Z,87.59
2022-12-12T01:51:59.420Z,87.38
2022-12-12T01:54:32.726Z,87.50
2022-12-12T01:57:05.380Z,87.24
2022-12-12T01:59:34.720Z,86.98
2022-12-12T02:02:03.419Z,86.95
2022-12-12T02:04:32.092Z,86.93
2022-12-12T02:07:00.514Z,87.08
2022-12-12T02:09:28.771Z,86.88
2022-12-12T02:11:58.460Z,86.86
2022-12-12T02:14:40.336Z,86.83
2022-12-12T02:17:43.594Z,86.89
2022-12-12T02:20:57.356Z,86.94
2022-12-12T02:23:47.237Z,86.92
2022-12-12T02:26:46.527Z,86.85
2022-12-12T02:29:38.974Z,86.83
2022-12-12T02:32:32.525Z,86.80
2022-12-12T02:35:18.296Z,86.96
2022-12-12T02:38:18.126Z,87.10
2022-12-12T02:40:49.128Z,86.89
2022-12-12T02:43:36.982Z,86.48
2022-12-12T02:46:29.225Z,86.22
2022-12-12T02:49:07.171Z,85.90
2022-12-12T02:51:38.305Z,85.41
2022-12-12T02:54:14.786Z,84.75
2022-12-12T02:56:51.969Z,84.62
2022-12-12T02:59:33.513Z,84.25
2022-12-12T03:02:39.184Z,84.06
2022-12-12T03:05:22.731Z,83.50
2022-12-12T03:08:12.610Z,82.72
2022-12-12T03:10:55.522Z,82.01
2022-12-12T03:13:33.353Z,81.50
2022-12-12T03:16:19.383Z,80.69
2022-12-12T03:18:50.247Z,80.46
2022-12-12T03:21:27.458Z,78.80
2022-12-12T03:24:03.119Z,79.27
2022-12-12T03:26:40.759Z,78.44
2022-12-12T03:29:14.547Z,77.83
2022-12-12T03:31:49.701Z,76.52
2022-12-12T03:34:22.977Z,76.53
2022-12-12T03:37:23.799Z,76.45
2022-12-12T03:40:06.126Z,76.08
2022-12-12T03:42:43.669Z,75.83
2022-12-12T03:45:18.115Z,76.09
2022-12-12T03:48:20.328Z,76.45
2022-12-12T03:50:53.958Z,76.25
2022-12-12T03:53:39.180Z,75.68
2022-12-12T03:56:10.571Z,75.64
2022-12-12T03:58:45.987Z,75.76
2022-12-12T04:01:17.219Z,76.07
2022-12-12T04:04:03.259Z,76.30
2022-12-12T04:07:05.160Z,75.88
2022-12-12T04:09:39.320Z,75.81
2022-12-12T04:12:17.131Z,75.67
2022-12-12T04:14:45.230Z,75.40
2022-12-12T04:17:18.101Z,75.48
2022-12-12T04:19:54.263Z,75.48
2022-12-12T04:22:27.433Z,75.11
2022-12-12T04:25:08.279Z,75.16
2022-12-12T04:27:41.530Z,74.98
2022-12-12T04:30:14.223Z,75.04
2022-12-12T04:33:01.651Z,74.88
2022-12-12T04:35:39.282Z,74.69
2022-12-12T04:38:13.395Z,74.52
2022-12-12T04:40:46.757Z,74.63
2022-12-12T04:43:34.510Z,74.73
2022-12-12T04:46:15.525Z,74.74
2022-12-12T04:48:58.717Z,74.73
2022-12-12T04:51:32.840Z,74.53
2022-12-12T04:54:13.118Z,74.76
2022-12-12T04:56:45.920Z,74.35
2022-12-12T04:59:14.520Z,74.66
2022-12-12T05:01:58.456Z,74.84
2022-12-12T05:04:48.768Z,74.66
2022-12-12T05:07:40.155Z,75.13
2022-12-12T05:10:13.345Z,75.47
2022-12-12T05:12:48.780Z,75.12
2022-12-12T05:15:20.410Z,75.73
2022-12-12T05:18:01.833Z,75.57
2022-12-12T05:20:30.473Z,75.55
2022-12-12T05:22:59.278Z,75.72
2022-12-12T05:25:27.788Z,76.13
2022-12-12T05:27:56.004Z,75.84
2022-12-12T05:30:24.808Z,75.68
2022-12-12T05:32:53.393Z,76.24
2022-12-12T05:35:22.371Z,75.66
2022-12-12T05:37:52.533Z,75.30
2022-12-12T05:40:21.935Z,75.35
2022-12-12T05:42:50.633Z,75.31
2022-12-12T05:45:19.615Z,75.43
2022-12-12T05:47:48.534Z,75.63
2022-12-12T05:50:17.684Z,75.70
2022-12-12T05:52:46.573Z,75.63
2022-12-12T05:55:15.278Z,76.06
2022-12-12T05:57:44.098Z,76.47
2022-12-12T06:00:13.282Z,76.14
2022-12-12T06:02:42.265Z,75.98
2022-12-12T06:05:11.869Z,76.30
2022-12-12T06:07:40.271Z,77.08
2022-12-12T06:10:09.566Z,77.00
2022-12-12T06:12:38.328Z,76.80
2022-12-12T06:15:08.903Z,76.76
2022-12-12T06:17:38.308Z,76.55
2022-12-12T06:20:07.086Z,77.00
2022-12-12T06:22:36.168Z,77.14
2022-12-12T06:25:04.461Z,76.89
2022-12-12T06:27:32.621Z,76.75
2022-12-12T06:30:00.787Z,76.84
2022-12-12T06:32:28.880Z,77.11
2022-12-12T06:34:56.928Z,77.22
2022-12-12T06:37:25.132Z,77.01
2022-12-12T06:39:53.417Z,77.33
2022-12-12T06:42:21.520Z,77.29
2022-12-12T06:44:49.858Z,77.15
2022-12-12T06:47:18.033Z,77.28
2022-12-12T06:49:46.224Z,77.11
2022-12-12T06:52:14.348Z,77.02
2022-12-12T06:54:42.443Z,77.17
2022-12-12T06:57:10.992Z,77.16
2022-12-12T06:59:39.113Z,77.15
2022-12-12T07:02:07.209Z,76.97
2022-12-12T07:04:35.314Z,77.02
2022-12-12T07:07:06.291Z,77.31
2022-12-12T07:09:34.518Z,77.12
2022-12-12T07:12:02.776Z,76.87
2022-12-12T07:14:31.129Z,76.77
2022-12-12T07:16:59.236Z,76.75
2022-12-12T07:19:27.245Z,76.59
2022-12-12T07:21:55.295Z,76.57
2022-12-12T07:24:23.841Z,76.48
2022-12-12T07:26:51.913Z,76.59
2022-12-12T07:29:20.084Z,76.68
2022-12-12T07:31:48.196Z,76.68
2022-12-12T07:34:16.448Z,76.54
2022-12-12T07:36:44.849Z,76.38
2022-12-12T07:39:17.350Z,76.21
2022-12-12T07:41:49.903Z,76.04
2022-12-12T07:44:18.054Z,76.07
2022-12-12T07:46:46.295Z,75.86
2022-12-12T07:49:14.897Z,75.68
2022-12-12T07:51:48.714Z,75.36
2022-12-12T07:54:17.955Z,74.97
2022-12-12T07:56:46.132Z,74.76
2022-12-12T07:59:14.266Z,74.50
2022-12-12T08:01:42.826Z,74.40
2022-12-12T08:04:11.263Z,74.83
2022-12-12T08:06:39.520Z,73.41
2022-12-12T08:09:07.534Z,71.64
2022-12-12T08:11:35.667Z,70.47
2022-12-12T08:14:12.666Z,68.31
2022-12-12T08:16:42.091Z,67.16
2022-12-12T08:19:10.368Z,65.77
2022-12-12T08:21:38.538Z,65.80
2022-12-12T08:24:07.136Z,66.19
2022-12-12T08:26:35.254Z,66.07
2022-12-12T08:29:04.877Z,65.44
2022-12-12T08:31:35.216Z,64.32
2022-12-12T08:34:03.648Z,61.94
2022-12-12T08:36:34.896Z,60.26
2022-12-12T08:39:15.156Z,58.13
2022-12-12T08:41:45.673Z,55.46
2022-12-12T08:44:15.156Z,53.05
2022-12-12T08:46:43.460Z,51.72
2022-12-12T08:49:13.135Z,52.17
2022-12-12T08:51:41.876Z,52.26
2022-12-12T08:54:13.021Z,52.49
2022-12-12T08:56:41.433Z,53.54
2022-12-12T08:59:10.853Z,55.57
2022-12-12T09:01:39.324Z,55.45
2022-12-12T09:04:07.768Z,55.30
2022-12-12T09:06:36.117Z,54.21
2022-12-12T09:09:04.274Z,52.45
2022-12-12T09:11:32.846Z,51.10
2022-12-12T09:14:00.871Z,48.96
2022-12-12T09:16:29.529Z,49.38
2022-12-12T09:18:57.684Z,47.61
2022-12-12T09:21:27.391Z,47.24
2022-12-12T09:23:55.472Z,46.10
2022-12-12T09:26:23.743Z,46.46
2022-12-12T09:28:51.863Z,46.83
2022-12-12T09:31:21.240Z,48.08
2022-12-12T09:33:49.441Z,49.19
2022-12-12T09:36:17.598Z,49.09
2022-12-12T09:38:45.616Z,48.34
2022-12-12T09:41:20.054Z,48.44
2022-12-12T09:43:53.901Z,48.51
2022-12-12T09:46:31.674Z,48.87
2022-12-12T09:49:43.303Z,49.42
2022-12-12T09:52:31.332Z,51.11
2022-12-12T09:55:02.439Z,52.90
2022-12-12T09:57:51.534Z,55.45
2022-12-12T10:00:20.290Z,56.58
2022-12-12T10:03:07.222Z,58.21
2022-12-12T10:06:13.840Z,61.16
2022-12-12T10:09:04.133Z,63.23
2022-12-12T10:11:35.568Z,64.48
2022-12-12T10:14:07.078Z,65.04
2022-12-12T10:16:36.324Z,65.65
2022-12-12T10:19:29.041Z,66.12
2022-12-12T10:22:07.136Z,66.96
2022-12-12T10:24:58.320Z,67.73
2022-12-12T10:27:26.675Z,67.15
2022-12-12T10:29:56.401Z,67.15
2022-12-12T10:32:43.453Z,67.31
2022-12-12T10:35:29.233Z,67.40
2022-12-12T10:38:09.924Z,67.02
2022-12-12T10:40:58.224Z,66.00
2022-12-12T10:43:31.293Z,65.79
2022-12-12T10:46:31.842Z,65.34
2022-12-12T10:49:00.183Z,65.02
2022-12-12T10:51:30.421Z,65.03
2022-12-12T10:53:58.567Z,65.27
2022-12-12T10:56:28.236Z,65.33
2022-12-12T10:59:00.728Z,65.40
2022-12-12T11:04:28.085Z,65.87
2022-12-12T11:06:57.040Z,65.78
2022-12-12T11:09:27.674Z,65.51
2022-12-12T11:12:04.687Z,65.75
2022-12-12T11:14:50.440Z,65.77
2022-12-12T11:17:21.774Z,65.60
2022-12-12T11:19:51.921Z,65.73
2022-12-12T11:22:21.371Z,65.58
2022-12-12T11:24:51.086Z,66.28
2022-12-12T11:27:51.784Z,66.33
2022-12-12T11:30:30.374Z,66.59
2022-12-12T11:32:58.993Z,65.68
2022-12-12T11:35:42.442Z,63.81
2022-12-12T11:38:13.941Z,64.25
2022-12-12T11:40:44.085Z,62.08
2022-12-12T11:43:26.656Z,60.38
2022-12-12T11:46:16.343Z,59.09
2022-12-12T11:48:57.451Z,57.92
2022-12-12T11:51:44.082Z,57.72
2022-12-12T11:54:31.585Z,57.42
2022-12-12T11:57:22.335Z,56.65
2022-12-12T11:59:53.225Z,56.18
2022-12-12T12:02:59.816Z,55.41
2022-12-12T12:05:47.238Z,55.51
2022-12-12T12:08:36.995Z,55.35
2022-12-12T12:11:08.505Z,54.42
2022-12-12T12:13:48.743Z,54.12
2022-12-12T12:16:35.229Z,54.53
2022-12-12T12:19:15.284Z,54.11
2022-12-12T12:22:06.879Z,54.17
2022-12-12T12:24:40.631Z,53.79
2022-12-12T12:27:27.747Z,53.75
2022-12-12T12:30:06.627Z,54.07
2022-12-12T12:33:13.708Z,54.06
2022-12-12T12:35:54.328Z,53.53
2022-12-12T12:38:54.545Z,53.24
2022-12-12T12:41:49.786Z,52.65
2022-12-12T12:44:27.877Z,51.69
2022-12-12T12:47:23.198Z,51.45
2022-12-12T12:50:28.332Z,50.68
2022-12-12T12:53:08.657Z,49.85
2022-12-12T12:55:47.473Z,50.62
2022-12-12T12:58:21.983Z,50.87
2022-12-12T13:00:59.973Z,51.83
2022-12-12T13:03:42.617Z,50.95
2022-12-12T13:06:18.679Z,50.83
2022-12-12T13:09:06.590Z,51.02
2022-12-12T13:11:40.055Z,52.51
2022-12-12T13:14:30.397Z,53.03
2022-12-12T13:17:03.332Z,54.73
2022-12-12T13:19:36.575Z,55.07
2022-12-12T13:22:42.335Z,55.52
2022-12-12T13:25:29.034Z,56.96
2022-12-12T13:28:00.970Z,58.66
2022-12-12T13:31:21.109Z,58.31
2022-12-12T13:34:23.315Z,59.21
2022-12-12T13:36:52.337Z,60.33
2022-12-12T13:39:36.003Z,61.47
2022-12-12T13:42:07.933Z,62.57
2022-12-12T13:44:49.274Z,62.38
2022-12-12T13:47:23.636Z,64.06
2022-12-12T13:50:03.028Z,65.11
2022-12-12T13:52:42.423Z,66.05
2022-12-12T13:55:13.385Z,66.07
2022-12-12T13:58:04.093Z,67.18
2022-12-12T14:00:36.962Z,67.70
2022-12-12T14:03:11.424Z,67.37
2022-12-12T14:05:50.708Z,67.42
2022-12-12T14:08:23.980Z,66.88
2022-12-12T14:10:57.500Z,66.31
2022-12-12T14:13:31.505Z,65.60
2022-12-12T14:16:15.030Z,65.70
2022-12-12T14:18:52.473Z,65.41
2022-12-12T14:21:36.245Z,66.24
2022-12-12T14:24:33.272Z,65.38
2022-12-12T14:27:06.506Z,65.36
2022-12-12T14:29:39.536Z,65.60
2022-12-12T14:32:13.567Z,65.15
2022-12-12T14:34:56.363Z,65.92
2022-12-12T14:37:27.649Z,67.35
2022-12-12T14:39:56.175Z,66.76
2022-12-12T14:43:15.320Z,66.37
2022-12-12T14:45:52.058Z,66.53
2022-12-12T14:48:28.663Z,68.00
2022-12-12T14:51:06.247Z,67.26
2022-12-12T14:53:46.530Z,68.59
2022-12-12T14:56:18.326Z,69.77
2022-12-12T14:58:56.288Z,69.34
2022-12-12T15:01:30.723Z,70.13
2022-12-12T15:03:59.870Z,69.40
2022-12-12T15:06:42.803Z,69.11
2022-12-12T15:09:18.841Z,68.80
2022-12-12T15:11:48.263Z,69.36
2022-12-12T15:14:34.622Z,70.34
2022-12-12T15:17:13.670Z,70.76
2022-12-12T15:19:45.172Z,72.04
2022-12-12T15:22:25.489Z,72.18
2022-12-12T15:24:55.845Z,73.09
2022-12-12T15:27:46.132Z,71.36
2022-12-12T15:30:30.269Z,71.75
2022-12-12T15:33:00.804Z,71.65
2022-12-12T15:35:28.966Z,70.58
2022-12-12T15:38:10.666Z,72.43
2022-12-12T15:40:40.067Z,74.15
2022-12-12T15:43:16.015Z,74.57
2022-12-12T15:45:50.697Z,76.53
2022-12-12T15:48:20.072Z,76.24
2022-12-12T15:50:53.965Z,76.67
2022-12-12T15:53:35.160Z,76.50
2022-12-12T15:56:13.211Z,77.17
2022-12-12T15:58:47.358Z,77.75
2022-12-12T16:01:20.298Z,78.14
2022-12-12T16:04:24.373Z,77.70
2022-12-12T16:06:52.552Z,77.14
2022-12-12T16:09:24.763Z,77.43
2022-12-12T16:11:58.292Z,77.06
2022-12-12T16:14:40.124Z,76.60
2022-12-12T16:17:25.423Z,76.54
2022-12-12T16:20:01.994Z,76.74
2022-12-12T16:22:40.845Z,76.09
2022-12-12T16:25:15.616Z,75.87
2022-12-12T16:27:44.458Z,75.83
2022-12-12T16:30:17.493Z,76.02
2022-12-12T16:32:46.032Z,76.17
2022-12-12T16:35:16.793Z,76.42
2022-12-12T16:37:45.618Z,76.68
2022-12-12T16:40:18.718Z,75.98
2022-12-12T16:43:09.326Z,75.72
2022-12-12T16:45:40.923Z,75.47
2022-12-12T16:48:16.237Z,75.51
2022-12-12T16:50:45.549Z,75.61
2022-12-12T16:53:14.426Z,75.52
2022-12-12T16:55:47.075Z,75.57
2022-12-12T16:58:16.007Z,76.31
2022-12-12T17:00:44.608Z,78.02
2022-12-12T17:03:14.925Z,77.09
2022-12-12T17:05:46.115Z,76.54
2022-12-12T17:08:15.230Z,76.40
2022-12-12T17:10:46.422Z,76.69
2022-12-12T17:13:24.656Z,77.48
2022-12-12T17:15:56.654Z,77.64
2022-12-12T17:18:24.951Z,77.99
2022-12-12T17:20:53.077Z,77.27
2022-12-12T17:23:28.856Z,77.37
2022-12-12T17:26:03.179Z,77.12
2022-12-12T17:28:34.456Z,77.12
2022-12-12T17:31:07.206Z,77.61
2022-12-12T17:33:35.835Z,77.23
2022-12-12T17:36:07.085Z,77.97
2022-12-12T17:38:35.712Z,77.46
2022-12-12T17:41:06.592Z,78.19
2022-12-12T17:43:36.348Z,77.51
2022-12-12T17:46:07.234Z,78.53
2022-12-12T17:48:36.092Z,78.69
2022-12-12T17:51:06.353Z,79.05
2022-12-12T17:53:36.800Z,79.17
2022-12-12T17:56:10.171Z,79.91
2022-12-12T17:58:41.566Z,80.10
2022-12-12T18:01:15.757Z,80.13
2022-12-12T18:03:45.098Z,80.43
2022-12-12T18:06:15.028Z,80.95
2022-12-12T18:08:43.875Z,80.89
2022-12-12T18:11:17.031Z,81.25
2022-12-12T18:13:46.354Z,81.37
2022-12-12T18:16:15.210Z,81.56
2022-12-12T18:18:44.809Z,81.89
2022-12-12T18:21:35.826Z,82.20
2022-12-12T18:24:05.988Z,82.24
2022-12-12T18:26:34.356Z,82.28
2022-12-12T18:29:05.429Z,82.41
2022-12-12T18:31:36.009Z,82.77
2022-12-12T18:34:04.307Z,82.68
2022-12-12T18:36:32.877Z,82.65
2022-12-12T18:39:03.989Z,82.96
2022-12-12T18:41:32.860Z,82.95
2022-12-12T18:44:06.619Z,82.63
2022-12-12T18:46:40.525Z,82.60
2022-12-12T18:49:12.630Z,82.55
2022-12-12T18:51:41.536Z,82.96
2022-12-12T18:54:15.050Z,83.04
2022-12-12T18:56:46.773Z,82.66
2022-12-12T18:59:16.008Z,82.69
2022-12-12T19:01:44.615Z,83.03
2022-12-12T19:04:20.833Z,82.93
2022-12-12T19:06:50.918Z,82.92
2022-12-12T19:09:19.443Z,82.70
2022-12-12T19:11:47.932Z,82.61
2022-12-12T19:14:16.953Z,83.09
2022-12-12T19:16:45.607Z,82.42
2022-12-12T19:19:14.455Z,83.02
2022-12-12T19:21:43.322Z,82.98
2022-12-12T19:24:12.749Z,83.01
2022-12-12T19:26:44.763Z,82.64
2022-12-12T19:29:16.625Z,82.43
2022-12-12T19:31:46.364Z,82.72
2022-12-12T19:34:17.572Z,82.36
2022-12-12T19:36:45.728Z,82.47
2022-12-12T19:39:13.877Z,82.50
2022-12-12T19:41:42.823Z,82.36
2022-12-12T19:44:12.729Z,82.55
2022-12-12T19:46:43.591Z,82.58
2022-12-12T19:49:14.298Z,82.99
2022-12-12T19:51:43.885Z,83.11
2022-12-12T19:54:20.353Z,82.66
2022-12-12T19:56:49.214Z,83.21
2022-12-12T19:59:19.124Z,82.95
2022-12-12T20:01:47.608Z,82.93
2022-12-12T20:04:22.052Z,82.88
2022-12-12T20:06:51.141Z,83.22
2022-12-12T20:09:22.917Z,83.22
2022-12-12T20:11:51.529Z,83.39
2022-12-12T20:14:35.812Z,83.17
2022-12-12T20:17:05.268Z,82.84
2022-12-12T20:19:34.548Z,83.30
2022-12-12T20:22:03.584Z,83.73
2022-12-12T20:24:34.157Z,83.78
2022-12-12T20:27:03.472Z,83.82
2022-12-12T20:29:32.354Z,83.88
2022-12-12T20:32:00.742Z,83.41
2022-12-12T20:34:29.898Z,83.55
2022-12-12T20:36:58.213Z,83.97
2022-12-12T20:39:26.539Z,82.97
2022-12-12T20:41:57.076Z,83.71
2022-12-12T20:44:26.181Z,83.80
2022-12-12T20:46:54.363Z,83.98
2022-12-12T20:49:23.705Z,83.18
2022-12-12T20:51:55.833Z,82.02
2022-12-12T20:54:34.180Z,82.65
2022-12-12T20:57:02.354Z,81.99
2022-12-12T20:59:30.609Z,81.95
2022-12-12T21:01:59.230Z,82.73
2022-12-12T21:04:28.841Z,82.85
2022-12-12T21:06:56.948Z,82.19
2022-12-12T21:09:26.433Z,81.12
2022-12-12T21:11:59.440Z,81.72
2022-12-12T21:14:29.241Z,81.50
2022-12-12T21:16:57.313Z,81.15
2022-12-12T21:19:25.409Z,80.82
2022-12-12T21:21:54.593Z,80.69
2022-12-12T21:24:22.780Z,80.63
2022-12-12T21:26:51.385Z,82.61
2022-12-12T21:29:21.416Z,81.26
2022-12-12T21:31:52.790Z,80.52
2022-12-12T21:34:31.631Z,80.02
2022-12-12T21:37:00.284Z,79.74
2022-12-12T21:39:29.067Z,79.60
2022-12-12T21:41:59.810Z,79.18
2022-12-12T21:44:27.977Z,79.03
2022-12-12T21:46:56.144Z,78.86
2022-12-12T21:49:24.674Z,78.50
2022-12-12T21:52:02.009Z,78.22
2022-12-12T21:54:34.245Z,78.09
2022-12-12T21:57:04.710Z,77.62
2022-12-12T21:59:32.970Z,77.39
2022-12-12T22:02:01.151Z,77.39
2022-12-12T22:04:30.088Z,77.15
2022-12-12T22:06:58.661Z,76.43
2022-12-12T22:09:27.396Z,75.71
2022-12-12T22:12:03.017Z,75.30
2022-12-12T22:14:34.843Z,75.08
2022-12-12T22:17:04.273Z,75.09
2022-12-12T22:19:35.268Z,74.94
2022-12-12T22:22:03.795Z,75.07
2022-12-12T22:24:31.956Z,74.65
2022-12-12T22:27:01.125Z,74.80
2022-12-12T22:29:29.374Z,74.72
2022-12-12T22:31:57.467Z,74.56
2022-12-12T22:34:25.682Z,75.65
2022-12-12T22:36:54.369Z,74.76
2022-12-12T22:39:26.899Z,74.71
2022-12-12T22:41:56.063Z,75.14
2022-12-12T22:44:26.460Z,74.99
2022-12-12T22:46:55.603Z,74.96
2022-12-12T22:49:26.429Z,74.92
2022-12-12T22:51:57.122Z,74.79
2022-12-12T22:54:26.819Z,74.71
2022-12-12T22:56:55.641Z,74.55
2022-12-12T22:59:24.497Z,74.45
2022-12-12T23:01:55.126Z,74.23
2022-12-12T23:04:23.467Z,74.28
2022-12-12T23:06:51.534Z,74.71
2022-12-12T23:09:23.762Z,74.83
2022-12-12T23:11:51.928Z,74.67
2022-12-12T23:14:22.520Z,74.93
2022-12-12T23:16:51.217Z,75.01
2022-12-12T23:19:23.085Z,76.01
2022-12-12T23:21:51.664Z,75.68
2022-12-12T23:24:20.415Z,75.43
2022-12-12T23:26:51.284Z,75.20
2022-12-12T23:29:19.816Z,75.64
2022-12-12T23:31:48.356Z,74.46
2022-12-12T23:34:23.478Z,74.68
2022-12-12T23:36:53.414Z,74.51
2022-12-12T23:39:23.860Z,74.55
2022-12-12T23:41:52.556Z,74.58
2022-12-12T23:44:22.246Z,74.20
2022-12-12T23:46:51.746Z,74.00
2022-12-12T23:49:25.635Z,74.13
2022-12-12T23:51:59.642Z,74.18
2022-12-12T23:54:32.443Z,74.03
2022-12-12T23:57:01.512Z,73.99
2022-12-12T23:59:29.820Z,74.10
